Terminal Aerodrome Forecast
Issued by NWS Wakefield, VA

Home | Current Version | Previous Version | Text Only | Print | Product List | Glossary On
Versions: 1 2 3 4 5 6 7 8 9 10 11 12 13 14 15 16 17 18 19 20 21 22 23 24 25 26 27 28 29
000
FTUS41 KAKQ 220520
TAFECG
TAF
KECG 220520Z 2206/2306 20007KT P6SM FEW120
     FM221100 21005KT 2SM BR SCT025
     FM221300 21006KT 2SM BR BKN010
     FM221500 22008KT P6SM BKN012
     FM221600 22008KT P6SM SCT015
     FM230100 15004KT P6SM SCT080
     FM230400 04004KT P6SM BKN040=

USA.gov is the U.S. government's official web portal to all federal, state and local government web resources and services.